createdAt,value
2018-11-10T00:01:06.857Z,39.77
2018-11-10T00:03:35.982Z,45.37
2018-11-10T00:06:06.428Z,46.73
2018-11-10T00:08:35.470Z,46.97
2018-11-10T00:11:04.692Z,49.10
2018-11-10T00:13:37.413Z,42.27
2018-11-10T00:16:06.991Z,45.70
2018-11-10T00:18:38.670Z,40.90
2018-11-10T00:21:08.266Z,46.23
2018-11-10T00:23:38.211Z,49.73
2018-11-10T00:26:07.876Z,52.30
2018-11-10T00:28:36.837Z,52.50
2018-11-10T00:31:08.201Z,55.90
2018-11-10T00:33:37.672Z,47.50
2018-11-10T00:36:08.549Z,51.93
2018-11-10T00:38:37.647Z,56.07
2018-11-10T00:41:07.755Z,52.27
2018-11-10T00:43:37.129Z,47.70
2018-11-10T00:46:07.893Z,54.73
2018-11-10T00:48:43.106Z,46.00
2018-11-10T00:51:12.143Z,49.10
2018-11-10T00:53:41.239Z,44.33
2018-11-10T00:56:10.589Z,52.80
2018-11-10T00:58:39.871Z,42.80
2018-11-10T01:01:08.865Z,46.63
2018-11-10T01:03:38.063Z,47.47
2018-11-10T01:06:07.027Z,50.53
2018-11-10T01:08:35.977Z,48.43
2018-11-10T01:11:04.928Z,43.67
2018-11-10T01:13:34.797Z,47.50
2018-11-10T01:16:05.065Z,44.87
2018-11-10T01:18:34.020Z,48.60
2018-11-10T01:21:03.068Z,59.30
2018-11-10T01:23:32.260Z,51.83
2018-11-10T01:26:01.182Z,47.90
2018-11-10T01:28:30.104Z,54.20
2018-11-10T01:30:59.225Z,52.37
2018-11-10T01:33:28.141Z,52.90
2018-11-10T01:35:57.010Z,49.73
2018-11-10T01:38:26.256Z,51.30
2018-11-10T01:40:55.939Z,50.60
2018-11-10T01:43:24.827Z,46.77
2018-11-10T01:45:53.617Z,50.57
2018-11-10T01:48:22.879Z,52.93
2018-11-10T01:50:51.861Z,47.87
2018-11-10T01:53:20.787Z,47.97
2018-11-10T01:55:50.281Z,49.90
2018-11-10T01:58:19.147Z,49.47
2018-11-10T02:00:47.987Z,52.70
2018-11-10T02:03:17.243Z,52.13
2018-11-10T02:05:46.137Z,47.87
2018-11-10T02:08:15.095Z,43.53
2018-11-10T02:10:47.973Z,49.53
2018-11-10T02:13:16.786Z,47.37
2018-11-10T02:15:45.615Z,47.93
2018-11-10T02:20:55.266Z,48.67
2018-11-10T02:23:24.112Z,54.30
2018-11-10T02:25:59.459Z,49.80
2018-11-10T02:28:28.439Z,48.53
2018-11-10T02:31:03.124Z,46.37
2018-11-10T02:33:32.005Z,46.50
2018-11-10T02:36:01.090Z,50.10
2018-11-10T02:38:30.413Z,52.47
2018-11-10T02:40:59.604Z,46.43
2018-11-10T02:43:29.930Z,54.33
2018-11-10T02:45:58.790Z,52.70
2018-11-10T02:48:29.050Z,52.47
2018-11-10T02:50:58.043Z,57.33
2018-11-10T02:53:27.410Z,55.57
2018-11-10T02:55:56.526Z,53.37
2018-11-10T02:58:32.054Z,54.23
2018-11-10T03:01:00.970Z,49.43
2018-11-10T03:03:35.207Z,58.93
2018-11-10T03:06:06.122Z,57.53
2018-11-10T03:08:35.342Z,59.60
2018-11-10T03:11:04.342Z,53.20
2018-11-10T03:13:33.430Z,52.90
2018-11-10T03:16:03.381Z,54.73
2018-11-10T03:18:32.324Z,59.77
2018-11-10T03:21:01.194Z,54.50
2018-11-10T03:23:30.065Z,63.93
2018-11-10T03:25:58.950Z,60.53
2018-11-10T03:28:27.939Z,56.97
2018-11-10T03:30:57.184Z,58.63
2018-11-10T03:33:26.701Z,56.00
2018-11-10T03:35:55.577Z,64.97
2018-11-10T03:38:24.889Z,53.63
2018-11-10T03:40:54.030Z,64.77
2018-11-10T03:43:23.024Z,51.60
2018-11-10T03:45:51.801Z,61.77
2018-11-10T03:48:26.884Z,55.70
2018-11-10T03:50:55.703Z,58.00
2018-11-10T03:53:24.835Z,61.17
2018-11-10T03:55:57.096Z,60.63
2018-11-10T03:58:26.877Z,59.43
2018-11-10T04:00:55.738Z,58.80
2018-11-10T04:03:24.533Z,60.67
2018-11-10T04:05:53.335Z,55.63
2018-11-10T04:08:23.165Z,53.60
2018-11-10T04:10:52.069Z,57.53
2018-11-10T04:13:21.040Z,58.77
2018-11-10T04:15:51.152Z,58.30
2018-11-10T04:18:25.793Z,50.60
2018-11-10T04:20:55.067Z,56.20
2018-11-10T04:23:24.173Z,55.43
2018-11-10T04:25:53.200Z,53.10
2018-11-10T04:28:26.022Z,50.60
2018-11-10T04:30:54.843Z,62.80
2018-11-10T04:33:30.159Z,70.87
2018-11-10T04:35:58.992Z,75.20
2018-11-10T04:38:27.950Z,104.73
2018-11-10T04:40:57.169Z,60.07
2018-11-10T04:43:26.086Z,59.43
2018-11-10T04:45:54.929Z,65.07
2018-11-10T04:48:24.063Z,61.23
2018-11-10T04:50:52.935Z,52.73
2018-11-10T04:53:25.098Z,61.10
2018-11-10T04:55:54.222Z,76.27
2018-11-10T04:58:26.226Z,69.23
2018-11-10T05:00:55.122Z,67.73
2018-11-10T05:03:24.915Z,69.23
2018-11-10T05:05:53.860Z,54.43
2018-11-10T05:08:22.792Z,72.30
2018-11-10T05:10:51.694Z,68.93
2018-11-10T05:13:20.706Z,62.53
2018-11-10T05:15:49.918Z,72.07
2018-11-10T05:18:25.868Z,70.47
2018-11-10T05:20:55.089Z,64.87
2018-11-10T05:23:24.942Z,61.20
2018-11-10T05:25:54.046Z,55.40
2018-11-10T05:28:23.339Z,65.40
2018-11-10T05:30:52.238Z,59.13
2018-11-10T05:33:20.835Z,60.50
2018-11-10T05:35:50.459Z,57.63
2018-11-10T05:38:19.492Z,57.43
2018-11-10T05:40:48.665Z,89.37
2018-11-10T05:43:17.924Z,60.17
2018-11-10T05:45:46.995Z,61.20
2018-11-10T05:48:15.930Z,59.43
2018-11-10T05:50:45.191Z,67.10
2018-11-10T05:53:14.748Z,54.73
2018-11-10T05:55:43.710Z,59.97
2018-11-10T05:58:13.017Z,55.70
2018-11-10T06:00:41.974Z,52.37
2018-11-10T06:03:11.577Z,56.57
2018-11-10T06:05:41.627Z,58.40
2018-11-10T06:08:10.641Z,54.70
2018-11-10T06:10:39.981Z,55.53
2018-11-10T06:13:09.500Z,59.30
2018-11-10T06:15:38.729Z,59.63
2018-11-10T06:20:35.507Z,54.80
2018-11-10T06:23:04.626Z,47.77
2018-11-10T06:25:33.794Z,55.13
2018-11-10T06:28:03.434Z,50.93
2018-11-10T06:30:32.503Z,52.83
2018-11-10T06:33:01.814Z,52.70
2018-11-10T06:35:30.712Z,59.87
2018-11-10T06:38:04.419Z,55.17
2018-11-10T06:40:33.672Z,54.73
2018-11-10T06:43:02.803Z,55.63
2018-11-10T06:45:31.752Z,53.43
2018-11-10T06:48:01.717Z,58.70
2018-11-10T06:50:36.370Z,56.47
2018-11-10T06:53:11.219Z,51.20
2018-11-10T06:55:40.092Z,57.00
2018-11-10T06:58:09.766Z,54.50
2018-11-10T07:00:39.011Z,58.17
2018-11-10T07:03:07.906Z,49.07
2018-11-10T07:05:36.745Z,56.73
2018-11-10T07:08:07.766Z,56.83
2018-11-10T07:10:37.014Z,53.90
2018-11-10T07:13:07.092Z,58.53
2018-11-10T07:15:36.264Z,56.73
2018-11-10T07:18:08.974Z,51.60
2018-11-10T07:20:37.843Z,49.37
2018-11-10T07:23:07.026Z,49.47
2018-11-10T07:25:35.957Z,55.57
2018-11-10T07:28:05.969Z,52.00
2018-11-10T07:30:35.206Z,49.10
2018-11-10T07:33:04.227Z,49.07
2018-11-10T07:35:33.143Z,50.40
2018-11-10T07:38:04.622Z,52.87
2018-11-10T07:40:33.561Z,48.97
2018-11-10T07:43:02.912Z,52.83
2018-11-10T07:45:32.192Z,51.30
2018-11-10T07:48:01.144Z,51.27
2018-11-10T07:50:31.488Z,54.90
2018-11-10T07:53:15.445Z,46.27
2018-11-10T07:55:44.428Z,50.27
2018-11-10T07:58:14.049Z,52.03
2018-11-10T08:00:42.963Z,45.73
2018-11-10T08:03:12.434Z,49.00
2018-11-10T08:05:41.836Z,44.97
2018-11-10T08:08:10.976Z,49.03
2018-11-10T08:10:41.805Z,49.30
2018-11-10T08:15:46.258Z,44.20
2018-11-10T08:20:54.994Z,49.67
2018-11-10T08:23:25.513Z,39.77
2018-11-10T08:25:54.760Z,43.33
2018-11-10T08:28:23.848Z,41.00
2018-11-10T08:30:53.067Z,41.73
2018-11-10T08:33:22.008Z,44.23
2018-11-10T08:35:58.686Z,39.60
2018-11-10T08:38:28.099Z,36.80
2018-11-10T08:40:57.056Z,40.50
2018-11-10T08:43:26.078Z,41.90
2018-11-10T08:45:55.347Z,38.93
2018-11-10T08:48:24.298Z,38.10
2018-11-10T08:50:53.251Z,36.57
2018-11-10T08:53:24.686Z,36.87
2018-11-10T08:55:54.013Z,35.80
2018-11-10T08:58:22.971Z,36.33
2018-11-10T09:00:52.306Z,33.77
2018-11-10T09:03:25.779Z,35.97
2018-11-10T09:05:54.737Z,35.07
2018-11-10T09:08:24.320Z,31.37
2018-11-10T09:10:53.321Z,47.33
2018-11-10T09:13:22.385Z,36.07
2018-11-10T09:15:51.588Z,35.20
2018-11-10T09:18:20.524Z,32.57
2018-11-10T09:20:49.973Z,34.47
2018-11-10T09:23:19.276Z,33.53
2018-11-10T09:25:48.435Z,33.37
2018-11-10T09:28:17.352Z,35.33
2018-11-10T09:30:46.692Z,34.90
2018-11-10T09:33:22.722Z,38.23
2018-11-10T09:35:51.707Z,33.23
2018-11-10T09:38:20.906Z,33.33
2018-11-10T09:40:49.800Z,31.93
2018-11-10T09:43:18.930Z,35.30
2018-11-10T09:45:48.005Z,31.73
2018-11-10T09:48:16.919Z,29.80
2018-11-10T09:50:46.176Z,34.63
2018-11-10T09:53:15.170Z,37.13
2018-11-10T09:55:44.094Z,33.43
2018-11-10T09:58:17.267Z,31.23
2018-11-10T10:00:46.214Z,36.23
2018-11-10T10:03:15.134Z,35.17
2018-11-10T10:05:49.454Z,33.77
2018-11-10T10:08:18.350Z,33.03
2018-11-10T10:10:47.358Z,35.93
2018-11-10T10:13:16.637Z,39.57
2018-11-10T10:15:45.599Z,36.80
2018-11-10T10:18:14.506Z,32.67
2018-11-10T10:20:43.757Z,36.80
2018-11-10T10:23:13.028Z,35.00
2018-11-10T10:25:42.168Z,35.33
2018-11-10T10:28:11.539Z,39.13
2018-11-10T10:30:46.577Z,37.97
2018-11-10T10:33:15.579Z,36.77
2018-11-10T10:35:44.646Z,36.97
2018-11-10T10:38:13.534Z,35.87
2018-11-10T10:40:43.687Z,41.43
2018-11-10T10:43:12.677Z,36.53
2018-11-10T10:45:41.730Z,37.10
2018-11-10T10:48:11.021Z,39.23
2018-11-10T10:50:46.259Z,44.10
2018-11-10T10:53:15.351Z,36.93
2018-11-10T10:55:44.542Z,38.10
2018-11-10T10:58:13.478Z,45.43
2018-11-10T11:03:27.398Z,37.10
2018-11-10T11:05:58.849Z,36.60
2018-11-10T11:08:27.922Z,39.47
2018-11-10T11:10:57.271Z,38.03
2018-11-10T11:13:31.024Z,36.60
2018-11-10T11:15:59.931Z,37.17
2018-11-10T11:18:29.627Z,31.73
2018-11-10T11:20:58.616Z,39.80
2018-11-10T11:23:30.830Z,38.90
2018-11-10T11:28:39.791Z,42.27
2018-11-10T11:31:09.001Z,37.93
2018-11-10T11:33:38.983Z,37.33
2018-11-10T11:36:07.892Z,39.40
2018-11-10T11:38:37.727Z,34.77
2018-11-10T11:41:06.840Z,30.40
2018-11-10T11:43:35.776Z,38.60
2018-11-10T11:46:05.539Z,33.63
2018-11-10T11:48:36.207Z,36.90
2018-11-10T11:51:05.161Z,31.37
2018-11-10T11:53:34.333Z,32.43
2018-11-10T11:56:08.236Z,33.83
2018-11-10T11:58:37.400Z,31.23
2018-11-10T12:01:06.723Z,31.03
2018-11-10T12:03:42.654Z,30.37
2018-11-10T12:06:17.751Z,28.60
2018-11-10T12:08:47.037Z,28.33
2018-11-10T12:11:15.916Z,25.67
2018-11-10T12:13:44.866Z,27.57
2018-11-10T12:16:13.819Z,27.13
2018-11-10T12:18:43.661Z,37.23
2018-11-10T12:21:12.547Z,26.43
2018-11-10T12:23:41.869Z,25.10
2018-11-10T12:26:10.705Z,31.60
2018-11-10T12:28:44.434Z,24.57
2018-11-10T12:31:14.731Z,24.87
2018-11-10T12:33:43.906Z,32.47
2018-11-10T12:36:12.889Z,26.63
2018-11-10T12:38:47.476Z,27.40
2018-11-10T12:41:16.310Z,26.97
2018-11-10T12:43:46.084Z,24.20
2018-11-10T12:46:16.983Z,31.13
2018-11-10T12:48:46.028Z,25.73
2018-11-10T12:51:16.143Z,25.97
2018-11-10T12:53:45.287Z,27.50
2018-11-10T12:56:14.305Z,29.47
2018-11-10T12:58:48.117Z,24.83
2018-11-10T13:01:17.573Z,28.87
2018-11-10T13:03:46.639Z,25.07
2018-11-10T13:06:15.592Z,25.77
2018-11-10T13:08:44.764Z,27.80
2018-11-10T13:11:13.679Z,24.03
2018-11-10T13:13:42.753Z,25.83
2018-11-10T13:16:11.947Z,22.47
2018-11-10T13:18:46.474Z,28.23
2018-11-10T13:21:15.460Z,27.57
2018-11-10T13:23:44.767Z,26.10
2018-11-10T13:26:13.713Z,23.00
2018-11-10T13:28:42.593Z,22.37
2018-11-10T13:31:11.863Z,21.10
2018-11-10T13:33:41.109Z,21.30
2018-11-10T13:36:10.857Z,26.37
2018-11-10T13:38:40.330Z,28.33
2018-11-10T13:41:09.213Z,19.83
2018-11-10T13:43:38.241Z,25.33
2018-11-10T13:46:07.533Z,21.40
2018-11-10T13:48:36.649Z,23.03
2018-11-10T13:51:06.224Z,22.77
2018-11-10T13:53:35.054Z,26.10
2018-11-10T13:56:06.335Z,21.43
2018-11-10T13:58:35.524Z,23.77
2018-11-10T14:01:04.494Z,24.13
2018-11-10T14:06:09.406Z,19.73
2018-11-10T14:08:45.377Z,73.10
2018-11-10T14:11:14.947Z,22.93
2018-11-10T14:13:44.390Z,21.10
2018-11-10T14:16:13.398Z,23.13
2018-11-10T14:18:42.682Z,20.10
2018-11-10T14:21:16.381Z,18.43
2018-11-10T14:23:46.231Z,20.23
2018-11-10T14:26:21.365Z,18.50
2018-11-10T14:28:50.513Z,20.00
2018-11-10T14:31:24.883Z,20.43
2018-11-10T14:33:53.753Z,17.57
2018-11-10T14:36:22.967Z,21.30
2018-11-10T14:38:57.479Z,23.30
2018-11-10T14:41:26.470Z,26.30
2018-11-10T14:43:57.732Z,21.07
2018-11-10T14:46:26.677Z,25.63
2018-11-10T14:48:55.654Z,27.70
2018-11-10T14:51:24.740Z,26.37
2018-11-10T14:53:53.727Z,23.00
2018-11-10T14:56:24.070Z,27.53
2018-11-10T14:58:53.129Z,23.33
2018-11-10T15:01:22.043Z,24.70
2018-11-10T15:03:57.172Z,24.37
2018-11-10T15:06:31.476Z,31.27
2018-11-10T15:09:01.234Z,23.27
2018-11-10T15:11:30.325Z,27.73
2018-11-10T15:13:59.379Z,26.77
2018-11-10T15:16:34.214Z,27.00
2018-11-10T15:19:03.503Z,24.43
2018-11-10T15:21:32.558Z,25.87
2018-11-10T15:24:02.284Z,27.50
2018-11-10T15:26:31.167Z,24.93
2018-11-10T15:29:00.122Z,24.57
2018-11-10T15:31:29.549Z,22.70
2018-11-10T15:33:58.483Z,22.97
2018-11-10T15:36:27.616Z,20.60
2018-11-10T15:38:57.028Z,17.37
2018-11-10T15:41:26.582Z,17.20
2018-11-10T15:43:55.795Z,16.40
2018-11-10T15:46:30.573Z,15.93
2018-11-10T15:48:59.606Z,11.90
2018-11-10T15:51:28.700Z,16.00
2018-11-10T15:53:58.088Z,16.63
2018-11-10T15:56:41.015Z,15.07
2018-11-10T15:59:11.036Z,15.93
2018-11-10T16:01:46.204Z,12.53
2018-11-10T16:04:15.188Z,18.00
2018-11-10T16:06:44.191Z,13.83
2018-11-10T16:09:13.911Z,14.37
2018-11-10T16:11:43.414Z,13.37
2018-11-10T16:16:18.986Z,16.57
2018-11-10T16:18:48.265Z,14.10
2018-11-10T16:21:20.648Z,12.63
2018-11-10T16:23:49.527Z,15.23
2018-11-10T16:26:18.761Z,12.30
2018-11-10T16:28:47.657Z,17.60
2018-11-10T16:31:16.622Z,17.80
2018-11-10T16:33:45.949Z,11.53
2018-11-10T16:36:15.137Z,10.93
2018-11-10T16:38:44.266Z,13.30
2018-11-10T16:41:13.636Z,11.40
2018-11-10T16:43:43.375Z,12.97
2018-11-10T16:46:18.484Z,9.70
2018-11-10T16:48:47.356Z,19.10
2018-11-10T16:51:16.394Z,10.47
2018-11-10T16:53:45.699Z,8.90
2018-11-10T16:56:14.614Z,10.00
2018-11-10T16:58:43.463Z,9.93
2018-11-10T17:01:12.597Z,11.70
2018-11-10T17:03:41.647Z,20.53
2018-11-10T17:06:10.933Z,9.00
2018-11-10T17:08:40.200Z,8.67
2018-11-10T17:11:09.107Z,12.47
2018-11-10T17:13:42.219Z,15.87
2018-11-10T17:16:18.371Z,17.23
2018-11-10T17:18:47.291Z,11.90
2018-11-10T17:21:16.396Z,8.80
2018-11-10T17:23:45.733Z,11.80
2018-11-10T17:26:14.766Z,10.30
2018-11-10T17:28:43.720Z,10.40
2018-11-10T17:32:21.319Z,12.20
2018-11-10T17:34:50.292Z,9.30
2018-11-10T17:37:19.322Z,10.23
2018-11-10T17:39:49.090Z,10.33
2018-11-10T17:42:18.133Z,9.90
2018-11-10T17:44:46.877Z,10.03
2018-11-10T17:47:23.497Z,8.70
2018-11-10T17:49:52.417Z,8.10
2018-11-10T17:52:25.519Z,16.53
2018-11-10T17:54:55.911Z,11.30
2018-11-10T17:57:24.745Z,10.73
2018-11-10T17:59:57.194Z,14.30
2018-11-10T18:02:26.725Z,20.57
2018-11-10T18:04:55.679Z,9.63
2018-11-10T18:07:24.873Z,12.80
2018-11-10T18:09:53.738Z,9.40
2018-11-10T18:12:23.058Z,14.17
2018-11-10T18:14:52.164Z,12.40
2018-11-10T18:17:21.213Z,13.83
2018-11-10T18:19:51.435Z,11.60
2018-11-10T18:22:20.419Z,8.00
2018-11-10T18:27:24.980Z,15.87
2018-11-10T18:29:54.458Z,9.30
2018-11-10T18:32:23.556Z,9.30
2018-11-10T18:34:52.849Z,9.30
2018-11-10T18:37:22.429Z,12.73
2018-11-10T18:39:51.485Z,13.10
2018-11-10T18:42:20.766Z,15.10
2018-11-10T18:44:49.707Z,12.67
2018-11-10T18:47:18.629Z,14.90
2018-11-10T18:49:47.900Z,18.03
2018-11-10T18:52:17.932Z,22.37
2018-11-10T18:54:47.050Z,26.77
2018-11-10T18:57:17.706Z,23.87
2018-11-10T18:59:46.882Z,20.80
2018-11-10T19:02:15.988Z,26.17
2018-11-10T19:04:45.193Z,26.17
2018-11-10T19:10:26.467Z,19.17
2018-11-10T19:12:59.144Z,18.57
2018-11-10T19:15:28.212Z,20.50
2018-11-10T19:17:57.337Z,16.90
2018-11-10T19:20:26.859Z,12.87
2018-11-10T19:23:01.218Z,19.30
2018-11-10T19:25:30.332Z,14.63
2018-11-10T19:27:59.708Z,11.67
2018-11-10T19:30:34.208Z,11.13
2018-11-10T19:33:04.608Z,9.17
2018-11-10T19:35:33.572Z,16.33
2018-11-10T19:38:10.432Z,10.50
2018-11-10T19:40:39.603Z,9.20
2018-11-10T19:43:15.630Z,12.27
2018-11-10T19:45:45.132Z,11.07
2018-11-10T19:48:14.175Z,15.27
2018-11-10T19:50:43.371Z,11.27
2018-11-10T19:53:12.261Z,14.07
2018-11-10T19:55:41.230Z,14.33
2018-11-10T19:58:10.508Z,14.03
2018-11-10T20:00:39.522Z,14.77
2018-11-10T20:03:08.630Z,15.90
2018-11-10T20:05:39.574Z,16.73
2018-11-10T20:08:08.690Z,16.27
2018-11-10T20:10:37.642Z,21.17
2018-11-10T20:13:11.672Z,15.07
2018-11-10T20:15:40.274Z,13.47
2018-11-10T20:18:09.873Z,10.80
2018-11-10T20:20:39.211Z,12.13
2018-11-10T20:23:08.356Z,13.20
2018-11-10T20:25:37.562Z,11.10
2018-11-10T20:28:07.007Z,11.60
2018-11-10T20:30:36.112Z,14.20
2018-11-10T20:33:05.263Z,14.23
2018-11-10T20:35:34.766Z,14.57
2018-11-10T20:38:07.860Z,14.47
2018-11-10T20:40:41.360Z,16.70
2018-11-10T20:43:10.240Z,11.87
2018-11-10T20:45:39.352Z,12.10
2018-11-10T20:48:09.648Z,14.10
2018-11-10T20:50:44.535Z,16.00
2018-11-10T20:53:13.645Z,22.30
2018-11-10T20:55:44.278Z,23.67
2018-11-10T20:58:13.274Z,17.20
2018-11-10T21:00:48.027Z,18.20
2018-11-10T21:03:17.440Z,21.23
2018-11-10T21:05:46.800Z,23.70
2018-11-10T21:08:15.960Z,23.83
2018-11-10T21:10:45.653Z,24.40
2018-11-10T21:13:15.130Z,20.17
2018-11-10T21:15:45.017Z,16.23
2018-11-10T21:18:15.071Z,16.83
2018-11-10T21:20:44.943Z,15.70
2018-11-10T21:23:13.886Z,18.00
2018-11-10T21:25:43.582Z,14.50
2018-11-10T21:28:14.287Z,15.57
2018-11-10T21:30:43.311Z,16.77
2018-11-10T21:33:20.953Z,16.37
2018-11-10T21:35:50.028Z,12.83
2018-11-10T21:38:19.046Z,14.60
2018-11-10T21:40:48.476Z,9.50
2018-11-10T21:43:26.825Z,8.60
2018-11-10T21:45:56.048Z,10.37
2018-11-10T21:48:26.057Z,10.00
2018-11-10T21:50:55.453Z,9.27
2018-11-10T21:53:26.017Z,10.00
2018-11-10T21:55:55.338Z,8.57
2018-11-10T21:58:24.385Z,8.50
2018-11-10T22:00:53.411Z,11.90
2018-11-10T22:03:23.200Z,11.83
2018-11-10T22:05:52.741Z,12.90
2018-11-10T22:08:21.816Z,9.50
2018-11-10T22:10:50.734Z,9.60
2018-11-10T22:13:19.872Z,16.90
2018-11-10T22:15:48.972Z,15.50
2018-11-10T22:18:18.683Z,18.00
2018-11-10T22:20:48.170Z,18.37
2018-11-10T22:23:19.134Z,18.30
2018-11-10T22:25:49.638Z,17.77
2018-11-10T22:28:18.680Z,18.10
2018-11-10T22:30:48.964Z,16.97
2018-11-10T22:33:18.959Z,15.73
2018-11-10T22:35:56.800Z,19.87
2018-11-10T22:38:26.111Z,17.50
2018-11-10T22:40:55.066Z,15.87
2018-11-10T22:43:25.090Z,19.80
2018-11-10T22:45:54.963Z,19.93
2018-11-10T22:48:23.932Z,16.37
2018-11-10T22:50:52.874Z,15.60
2018-11-10T22:53:21.896Z,19.00
2018-11-10T22:55:50.717Z,21.37
2018-11-10T22:58:23.927Z,20.53
2018-11-10T23:00:58.060Z,17.47
2018-11-10T23:03:27.418Z,21.83
2018-11-10T23:05:56.277Z,21.90
2018-11-10T23:08:25.960Z,19.50
2018-11-10T23:10:56.481Z,23.70
2018-11-10T23:13:25.759Z,27.30
2018-11-10T23:15:56.530Z,31.20
2018-11-10T23:18:26.928Z,27.33
2018-11-10T23:21:03.632Z,23.57
2018-11-10T23:23:32.567Z,22.17
2018-11-10T23:26:02.871Z,23.53
2018-11-10T23:28:31.840Z,24.30
2018-11-10T23:31:07.287Z,20.87
2018-11-10T23:33:36.383Z,31.73
2018-11-10T23:36:06.175Z,21.40
2018-11-10T23:38:35.566Z,23.43
2018-11-10T23:41:05.459Z,22.90
2018-11-10T23:43:34.448Z,24.90
2018-11-10T23:46:06.327Z,22.13
2018-11-10T23:48:35.253Z,27.73
2018-11-10T23:51:04.759Z,22.03
2018-11-10T23:53:34.258Z,20.17
2018-11-10T23:56:04.452Z,21.90
2018-11-10T23:58:33.501Z,22.33
